Time;durP1;ratioP1;P1;durP2;ratioP2;P2;SDS_P1;SDS_P2;PMS_P1;PMS_P2;Temp;Humidity;BMP_temperature;BMP_pressure;BME280_temperature;BME280_humidity;BME280_pressure;Samples;Min_cycle;Max_cycle;Signal;HPM_P1;HPM_P2
2022/09/26 00:02:06;;;;;;;2.33;1.40;;;13.00;67.40;;;;;;5112554;28;20427;-66
2022/09/26 00:04:32;;;;;;;2.40;1.58;;;13.00;67.40;;;;;;5095249;28;20091;-66
2022/09/26 00:06:58;;;;;;;2.90;1.65;;;13.00;67.40;;;;;;5113845;28;20039;-66
2022/09/26 00:09:26;;;;;;;4.97;2.13;;;13.00;67.50;;;;;;5111875;28;20047;-66
2022/09/26 00:11:52;;;;;;;5.00;2.25;;;13.00;67.50;;;;;;5129033;27;20051;-66
2022/09/26 00:14:21;;;;;;;4.07;2.05;;;13.00;67.60;;;;;;5112096;28;20035;-66
2022/09/26 00:16:47;;;;;;;4.25;1.90;;;13.00;67.70;;;;;;5111991;28;20035;-66
2022/09/26 00:19:15;;;;;;;3.53;2.10;;;12.90;67.60;;;;;;5112085;28;20066;-66
2022/09/26 00:21:41;;;;;;;5.55;2.47;;;12.90;67.60;;;;;;5112252;28;20039;-66
2022/09/26 00:24:07;;;;;;;4.18;2.22;;;12.90;67.70;;;;;;5111943;28;20394;-66
2022/09/26 00:26:34;;;;;;;4.28;2.53;;;12.90;68.10;;;;;;5112010;28;20085;-66
2022/09/26 00:29:06;;;;;;;7.60;3.08;;;12.90;67.80;;;;;;5123281;27;20040;-66
2022/09/26 00:31:35;;;;;;;4.28;2.03;;;12.90;67.80;;;;;;5112019;28;20031;-66
2022/09/26 00:34:01;;;;;;;4.90;2.30;;;12.90;67.80;;;;;;5111547;28;20112;-66
2022/09/26 00:36:27;;;;;;;4.82;2.78;;;12.90;67.90;;;;;;5111963;28;20027;-66
2022/09/26 00:38:53;;;;;;;7.35;2.80;;;12.90;67.80;;;;;;5112002;28;20424;-66
2022/09/26 00:41:18;;;;;;;6.05;2.47;;;12.90;67.80;;;;;;5111910;28;20035;-66
2022/09/26 00:43:51;;;;;;;6.65;2.08;;;12.90;67.80;;;;;;5111813;28;20502;-66
2022/09/26 00:46:20;;;;;;;7.28;2.28;;;12.90;67.90;;;;;;5110362;27;20040;-66
2022/09/26 00:48:52;;;;;;;8.25;2.70;;;12.80;67.90;;;;;;5111371;28;20483;-66
2022/09/26 00:51:17;;;;;;;4.55;2.17;;;12.80;67.90;;;;;;5126823;27;20100;-66
2022/09/26 00:53:47;;;;;;;6.22;2.25;;;12.80;67.90;;;;;;5111449;28;20292;-66
2022/09/26 00:56:26;;;;;;;4.28;2.85;;;12.80;67.90;;;;;;5111702;28;20039;-66
2022/09/26 00:59:03;;;;;;;7.30;2.65;;;12.80;68.40;;;;;;5111692;28;20402;-66
2022/09/26 01:01:30;;;;;;;6.22;2.80;;;12.80;68.00;;;;;;5111512;28;20122;-66
2022/09/26 01:03:56;;;;;;;5.15;2.03;;;12.80;68.00;;;;;;5111299;28;20063;-66
2022/09/26 01:06:22;;;;;;;5.30;2.33;;;12.80;68.00;;;;;;5094421;28;20039;-66
2022/09/26 01:08:56;;;;;;;3.55;1.83;;;12.80;68.00;;;;;;5110984;28;20036;-66
2022/09/26 01:11:21;;;;;;;7.78;3.17;;;12.80;68.00;;;;;;5112768;27;20046;-66
2022/09/26 01:13:49;;;;;;;4.85;2.33;;;12.80;67.90;;;;;;5111178;28;20475;-66
2022/09/26 01:16:15;;;;;;;7.70;2.83;;;12.80;68.00;;;;;;5111256;28;20054;-66
2022/09/26 01:18:42;;;;;;;5.97;2.15;;;12.80;68.00;;;;;;5094232;28;20035;-66
2022/09/26 01:21:35;;;;;;;4.93;2.33;;;12.80;68.00;;;;;;5093772;28;20039;-66
2022/09/26 01:24:28;;;;;;;4.25;2.25;;;12.80;68.00;;;;;;5110809;28;20077;-66
2022/09/26 01:27:03;;;;;;;6.65;2.78;;;12.70;68.00;;;;;;5110953;28;20109;-66
2022/09/26 01:29:34;;;;;;;5.05;2.10;;;12.70;67.90;;;;;;5110891;28;20035;-66
2022/09/26 01:35:07;;;;;;;4.78;1.85;;;12.70;68.00;;;;;;5128139;27;20032;-66
2022/09/26 01:37:47;;;;;;;5.57;2.20;;;12.70;67.90;;;;;;5111101;28;20047;-66
2022/09/26 01:40:30;;;;;;;3.80;1.73;;;12.70;68.00;;;;;;5110411;28;20040;-66
2022/09/26 01:43:04;;;;;;;5.35;2.20;;;12.70;67.90;;;;;;5111058;28;20039;-66
2022/09/26 01:45:51;;;;;;;;;;;12.70;68.20;;;;;;5111258;28;20085;-69
2022/09/26 01:48:28;;;;;;;4.68;1.85;;;12.70;67.70;;;;;;5110815;28;20492;-68
2022/09/26 01:51:05;;;;;;;3.53;1.55;;;12.70;68.10;;;;;;5109577;28;20044;-68
2022/09/26 01:53:42;;;;;;;4.40;1.50;;;12.70;68.10;;;;;;5110702;28;20040;-68
2022/09/26 01:56:15;;;;;;;6.95;2.45;;;12.70;68.10;;;;;;5110910;28;20047;-68
2022/09/26 01:59:00;;;;;;;3.70;1.77;;;12.70;68.20;;;;;;5110853;28;20054;-68
2022/09/26 02:01:30;;;;;;;3.65;1.77;;;12.70;68.20;;;;;;5127552;28;20118;-66
2022/09/26 02:04:00;;;;;;;6.18;2.53;;;12.70;68.20;;;;;;5108463;28;20511;-66
2022/09/26 02:06:40;;;;;;;3.30;1.52;;;12.70;68.30;;;;;;5110605;28;20054;-66
2022/09/26 02:09:20;;;;;;;5.53;2.10;;;12.70;68.40;;;;;;5110466;28;20479;-66
2022/09/26 02:11:49;;;;;;;4.82;1.70;;;12.70;68.40;;;;;;5109280;28;20474;-66
2022/09/26 02:14:20;;;;;;;4.28;2.10;;;12.70;68.50;;;;;;5110690;28;20081;-66
2022/09/26 02:16:53;;;;;;;4.18;1.65;;;12.70;68.60;;;;;;5108771;28;20031;-66
2022/09/26 02:19:30;;;;;;;5.78;2.30;;;12.70;68.70;;;;;;5110305;28;20746;-66
2022/09/26 02:21:57;;;;;;;9.65;2.33;;;12.70;68.70;;;;;;5110278;28;20027;-66
2022/09/26 02:24:23;;;;;;;6.32;3.13;;;12.70;68.90;;;;;;5110656;28;20051;-66
2022/09/26 02:26:50;;;;;;;5.38;2.90;;;12.70;69.10;;;;;;5093398;28;20126;-67
2022/09/26 02:29:16;;;;;;;5.15;2.30;;;12.70;69.30;;;;;;5110360;28;20123;-66
2022/09/26 02:31:50;;;;;;;3.97;2.20;;;12.80;69.50;;;;;;5110335;28;20541;-67
2022/09/26 02:34:16;;;;;;;4.65;3.28;;;12.80;69.80;;;;;;5113598;28;20310;-67
2022/09/26 02:36:42;;;;;;;8.30;3.28;;;12.80;69.80;;;;;;5114098;28;20039;-67
2022/09/26 02:39:10;;;;;;;4.57;2.90;;;12.80;70.10;;;;;;5115460;27;20143;-67
2022/09/26 02:41:44;;;;;;;5.57;3.58;;;12.80;70.20;;;;;;5114153;28;20170;-67
2022/09/26 02:44:49;;;;;;;6.03;3.25;;;12.80;70.40;;;;;;5095801;28;20039;-67
2022/09/26 02:47:37;;;;;;;5.22;2.60;;;12.80;70.50;;;;;;5113909;28;20043;-67
2022/09/26 02:50:46;;;;;;;5.90;3.90;;;12.80;70.40;;;;;;5064951;28;20431;-67
2022/09/26 02:53:34;;;;;;;6.40;2.88;;;12.80;70.70;;;;;;5112297;27;20051;-67
2022/09/26 02:56:25;;;;;;;8.43;3.83;;;12.80;70.70;;;;;;5113887;28;20035;-67
2022/09/26 02:59:21;;;;;;;7.32;3.80;;;12.80;70.90;;;;;;5113934;28;20401;-67
2022/09/26 03:02:00;;;;;;;7.75;4.25;;;12.80;71.20;;;;;;5114175;28;20116;-67
2022/09/26 03:04:35;;;;;;;4.70;3.13;;;12.80;71.30;;;;;;5113913;28;20035;-67
2022/09/26 03:07:05;;;;;;;5.68;4.20;;;12.70;71.30;;;;;;5113404;28;20027;-68
2022/09/26 03:09:33;;;;;;;6.32;3.95;;;12.80;71.50;;;;;;5113461;28;20425;-68
2022/09/26 03:12:01;;;;;;;5.55;3.83;;;12.80;71.60;;;;;;5113711;28;20548;-68
2022/09/26 03:14:30;;;;;;;6.03;4.25;;;12.70;71.60;;;;;;5115003;28;20031;-69
2022/09/26 03:16:57;;;;;;;10.52;4.22;;;12.70;71.80;;;;;;5113363;28;20062;-69
2022/09/26 03:19:30;;;;;;;5.65;3.78;;;12.70;71.90;;;;;;5096356;28;20138;-69
2022/09/26 03:21:57;;;;;;;8.32;3.85;;;12.60;72.00;;;;;;5094822;28;20112;-69
2022/09/26 03:24:24;;;;;;;6.22;3.50;;;12.60;72.00;;;;;;5113225;28;20050;-69
2022/09/26 03:26:50;;;;;;;6.20;3.70;;;12.60;72.10;;;;;;5113102;28;20075;-69
2022/09/26 03:29:18;;;;;;;7.13;3.88;;;12.60;72.20;;;;;;5113025;28;20440;-69
2022/09/26 03:31:44;;;;;;;6.07;3.10;;;12.60;72.30;;;;;;5096695;28;20371;-69
2022/09/26 03:34:10;;;;;;;4.93;3.28;;;12.50;72.30;;;;;;5113001;28;20030;-69
2022/09/26 03:36:36;;;;;;;7.45;4.07;;;12.50;72.30;;;;;;5113312;28;20428;-69
2022/09/26 03:39:02;;;;;;;8.23;3.38;;;12.50;72.40;;;;;;5129930;27;20118;-69
2022/09/26 03:41:27;;;;;;;6.13;2.78;;;12.50;72.50;;;;;;5113100;28;20078;-69
2022/09/26 03:43:55;;;;;;;5.32;3.47;;;12.50;72.60;;;;;;5112933;28;20134;-67
2022/09/26 03:46:21;;;;;;;4.05;3.00;;;12.50;72.60;;;;;;5113129;28;20046;-67
2022/09/26 03:48:48;;;;;;;6.35;3.47;;;12.50;72.60;;;;;;5112617;28;20119;-67
2022/09/26 03:51:14;;;;;;;7.78;3.47;;;12.50;72.70;;;;;;5095702;28;20032;-67
2022/09/26 03:53:41;;;;;;;6.45;3.55;;;12.40;72.70;;;;;;5112808;28;20080;-67
2022/09/26 03:56:13;;;;;;;8.13;3.58;;;12.50;72.90;;;;;;5112818;28;20474;-67
2022/09/26 03:58:39;;;;;;;6.85;4.38;;;12.40;72.90;;;;;;5110423;28;20051;-67
2022/09/26 04:01:07;;;;;;;5.70;4.07;;;12.40;73.30;;;;;;5112448;28;20039;-67
2022/09/26 04:03:35;;;;;;;6.55;3.95;;;12.40;72.90;;;;;;5118924;27;20510;-67
2022/09/26 04:06:01;;;;;;;7.53;3.92;;;12.40;72.90;;;;;;5109928;28;20036;-67
2022/09/26 04:08:27;;;;;;;6.38;3.95;;;12.40;72.90;;;;;;5095121;28;20043;-67
2022/09/26 04:11:03;;;;;;;8.32;4.72;;;12.40;72.90;;;;;;5112381;28;20031;-67
2022/09/26 04:13:29;;;;;;;6.75;4.30;;;12.30;72.90;;;;;;5112516;28;20130;-67
2022/09/26 04:15:57;;;;;;;6.75;3.55;;;12.30;73.00;;;;;;5095381;28;20063;-67
2022/09/26 04:18:23;;;;;;;6.93;4.63;;;12.30;73.00;;;;;;5112307;28;20035;-67
2022/09/26 04:20:49;;;;;;;6.60;4.53;;;12.30;73.10;;;;;;5111942;28;20042;-67
2022/09/26 04:23:15;;;;;;;5.85;4.18;;;12.30;73.10;;;;;;5112151;28;20031;-67
2022/09/26 04:25:40;;;;;;;6.13;3.83;;;12.30;73.10;;;;;;5111856;28;20051;-67
2022/09/26 04:28:07;;;;;;;7.55;4.10;;;12.30;73.10;;;;;;5111995;28;20039;-67
2022/09/26 04:30:32;;;;;;;6.40;4.07;;;12.20;73.10;;;;;;5112136;28;21839;-67
2022/09/26 04:32:58;;;;;;;8.27;3.92;;;12.20;73.20;;;;;;5111997;28;20032;-67
2022/09/26 04:35:24;;;;;;;6.43;3.97;;;12.20;73.20;;;;;;5111930;28;20042;-68
2022/09/26 04:37:50;;;;;;;6.28;3.75;;;12.20;73.20;;;;;;5111810;28;20100;-69
2022/09/26 04:40:15;;;;;;;5.75;3.88;;;12.20;73.20;;;;;;5111857;28;20044;-69
2022/09/26 04:42:41;;;;;;;8.63;3.95;;;12.20;73.20;;;;;;5111928;28;20040;-69
2022/09/26 04:45:07;;;;;;;7.75;4.32;;;12.10;73.10;;;;;;5111353;28;20126;-69
2022/09/26 04:47:33;;;;;;;8.48;4.82;;;12.20;73.20;;;;;;5111530;28;20043;-69
2022/09/26 04:49:59;;;;;;;6.57;3.92;;;12.20;73.20;;;;;;5111451;28;20380;-69
2022/09/26 04:52:25;;;;;;;5.30;3.80;;;12.20;73.10;;;;;;5111351;28;20459;-67
2022/09/26 04:54:51;;;;;;;8.93;4.55;;;12.20;73.10;;;;;;5094034;28;20044;-67
2022/09/26 04:57:17;;;;;;;8.00;4.63;;;12.10;73.10;;;;;;5110606;28;20210;-67
2022/09/26 04:59:42;;;;;;;6.60;4.20;;;12.20;73.10;;;;;;5111572;28;20055;-67
2022/09/26 05:02:08;;;;;;;7.57;4.38;;;12.10;73.00;;;;;;5111704;28;20045;-66
2022/09/26 05:04:34;;;;;;;7.57;4.32;;;12.10;73.10;;;;;;5111739;28;20398;-67
2022/09/26 05:07:00;;;;;;;10.15;4.25;;;12.10;73.00;;;;;;5094006;28;20047;-67
2022/09/26 05:09:26;;;;;;;6.80;4.50;;;12.10;72.90;;;;;;5111085;28;20406;-67
2022/09/26 05:11:52;;;;;;;7.70;4.95;;;12.10;72.90;;;;;;5111364;28;20127;-67
2022/09/26 05:14:18;;;;;;;7.18;4.90;;;12.10;72.80;;;;;;5126396;27;20028;-67
2022/09/26 05:16:43;;;;;;;7.38;4.95;;;12.10;72.80;;;;;;5111623;28;20037;-67
2022/09/26 05:19:09;;;;;;;7.00;4.55;;;12.10;72.80;;;;;;5110876;28;20044;-68
2022/09/26 05:21:35;;;;;;;20.02;5.18;;;12.10;72.80;;;;;;5111350;28;20100;-69
2022/09/26 05:26:48;;;;;;;8.80;5.57;;;12.10;72.90;;;;;;5111018;28;20138;-68
2022/09/26 05:29:14;;;;;;;7.07;5.30;;;12.00;72.70;;;;;;5124899;28;20081;-68
2022/09/26 05:31:40;;;;;;;9.43;4.85;;;12.00;72.70;;;;;;5110817;28;20036;-67
2022/09/26 05:34:11;;;;;;;8.23;5.07;;;12.00;72.70;;;;;;5110843;28;20036;-67
2022/09/26 05:36:38;;;;;;;6.03;4.57;;;12.00;72.70;;;;;;5111095;28;20063;-67
2022/09/26 05:39:05;;;;;;;10.23;5.18;;;11.90;72.60;;;;;;5110270;28;20059;-67
2022/09/26 05:41:32;;;;;;;7.65;5.53;;;12.00;72.60;;;;;;5111115;28;20494;-67
2022/09/26 05:43:58;;;;;;;6.95;5.05;;;12.00;72.60;;;;;;5110740;28;20036;-68
2022/09/26 05:46:27;;;;;;;9.65;5.50;;;11.90;72.50;;;;;;5110671;28;20039;-68
2022/09/26 05:48:54;;;;;;;8.70;5.30;;;11.90;72.50;;;;;;5093177;28;20133;-65
2022/09/26 05:51:20;;;;;;;7.55;4.85;;;11.90;72.40;;;;;;5110925;28;20093;-66
2022/09/26 05:53:47;;;;;;;8.60;5.10;;;11.90;72.40;;;;;;5111283;28;20039;-66
2022/09/26 05:56:15;;;;;;;6.47;4.90;;;11.90;72.40;;;;;;5111033;28;20059;-66
2022/09/26 05:58:41;;;;;;;8.43;4.78;;;11.90;72.30;;;;;;5110367;28;20130;-67
2022/09/26 06:01:10;;;;;;;8.43;4.82;;;11.90;72.30;;;;;;5111768;28;20127;-68
2022/09/26 06:03:36;;;;;;;5.85;4.72;;;11.80;72.20;;;;;;5110936;28;20556;-67
2022/09/26 06:06:04;;;;;;;9.30;5.13;;;11.90;72.20;;;;;;5110946;28;20604;-68
2022/09/26 06:08:30;;;;;;;7.57;5.25;;;11.90;72.10;;;;;;5105786;28;20104;-68
2022/09/26 06:11:04;;;;;;;9.65;5.03;;;11.80;72.00;;;;;;5117164;27;20459;-68
2022/09/26 06:13:31;;;;;;;8.57;4.85;;;11.80;71.90;;;;;;5136404;27;20075;-68
2022/09/26 06:16:05;;;;;;;9.30;5.63;;;11.80;72.00;;;;;;5136365;27;20046;-68
2022/09/26 06:18:35;;;;;;;8.60;5.05;;;11.80;72.10;;;;;;5123596;27;20054;-69
2022/09/26 06:21:06;;;;;;;7.60;4.93;;;11.80;72.00;;;;;;5115624;28;20519;-69
2022/09/26 06:23:33;;;;;;;7.47;4.85;;;11.80;72.00;;;;;;5115502;28;20046;-69
2022/09/26 06:25:59;;;;;;;8.77;4.80;;;11.80;72.00;;;;;;5115562;28;20547;-68
2022/09/26 06:28:29;;;;;;;8.90;4.43;;;11.70;71.90;;;;;;5114559;28;20059;-67
2022/09/26 06:30:55;;;;;;;5.55;4.18;;;11.70;71.90;;;;;;5114223;28;20122;-67
2022/09/26 06:33:21;;;;;;;6.20;4.80;;;11.70;71.90;;;;;;5097502;28;20085;-68
2022/09/26 06:35:47;;;;;;;8.27;4.07;;;11.70;71.90;;;;;;5114443;28;20039;-69
2022/09/26 06:38:13;;;;;;;9.48;3.83;;;11.70;71.80;;;;;;5114184;28;20035;-69
2022/09/26 06:40:38;;;;;;;4.90;3.70;;;11.70;71.90;;;;;;5114138;28;20071;-68
2022/09/26 06:43:04;;;;;;;7.95;3.70;;;11.70;71.90;;;;;;5114419;28;20075;-68
2022/09/26 06:45:30;;;;;;;6.22;4.07;;;11.70;71.80;;;;;;5097053;28;20035;-65
2022/09/26 06:47:59;;;;;;;7.75;3.67;;;11.60;71.70;;;;;;5114119;28;20402;-65
2022/09/26 06:50:25;;;;;;;6.85;3.45;;;11.70;71.70;;;;;;5114928;28;20043;-65
2022/09/26 06:52:50;;;;;;;8.88;3.58;;;11.60;71.80;;;;;;5115075;28;20043;-66
2022/09/26 06:55:16;;;;;;;7.78;4.03;;;11.60;71.80;;;;;;5114363;28;20032;-66
2022/09/26 06:57:42;;;;;;;5.88;3.35;;;11.60;71.80;;;;;;5114813;28;20047;-66
2022/09/26 07:00:14;;;;;;;7.65;3.72;;;11.70;71.80;;;;;;5114383;28;20546;-65
2022/09/26 07:02:54;;;;;;;5.47;3.00;;;11.60;71.80;;;;;;5115902;27;20403;-66
2022/09/26 07:05:22;;;;;;;10.30;3.40;;;11.60;72.00;;;;;;5096400;28;20132;-67
2022/09/26 07:07:48;;;;;;;6.40;3.05;;;11.60;71.80;;;;;;5116381;27;20467;-68
2022/09/26 07:10:17;;;;;;;6.95;3.10;;;11.60;71.80;;;;;;5114836;28;20380;-68
2022/09/26 07:12:47;;;;;;;6.78;3.22;;;11.60;71.70;;;;;;5114847;28;20096;-68
2022/09/26 07:15:15;;;;;;;7.93;3.50;;;11.60;71.70;;;;;;5130793;27;20043;-68
2022/09/26 07:17:43;;;;;;;6.97;3.20;;;11.60;71.70;;;;;;5114786;27;20077;-68
2022/09/26 07:20:14;;;;;;;5.70;3.05;;;11.60;71.70;;;;;;5130980;27;20082;-68
2022/09/26 07:22:42;;;;;;;4.80;2.72;;;11.60;71.70;;;;;;5114389;28;20043;-66
2022/09/26 07:25:09;;;;;;;5.15;3.47;;;11.60;71.70;;;;;;5114317;28;20469;-66
2022/09/26 07:27:35;;;;;;;9.30;3.10;;;11.60;71.70;;;;;;5113838;28;20062;-66
2022/09/26 07:30:02;;;;;;;5.97;2.88;;;11.60;71.80;;;;;;5114183;28;20047;-66
2022/09/26 07:32:30;;;;;;;6.45;2.85;;;11.70;71.90;;;;;;5113666;28;20140;-66
2022/09/26 07:34:58;;;;;;;6.20;2.17;;;11.60;71.90;;;;;;5111315;28;20036;-67
2022/09/26 07:37:28;;;;;;;4.28;2.78;;;11.60;71.80;;;;;;5113886;28;20070;-67
2022/09/26 07:39:53;;;;;;;5.60;2.78;;;11.60;71.80;;;;;;5114011;28;20071;-67
2022/09/26 07:42:20;;;;;;;6.63;2.65;;;11.70;72.00;;;;;;5113251;28;20515;-67
2022/09/26 07:44:46;;;;;;;7.85;3.20;;;11.70;72.00;;;;;;5096158;27;20083;-68
2022/09/26 07:50:13;;;;;;;;;;;11.70;71.80;;;;;;5123859;27;20101;-68
2022/09/26 07:52:41;;;;;;;6.20;2.67;;;11.80;71.80;;;;;;5121153;27;20434;-68
2022/09/26 07:55:08;;;;;;;6.05;2.55;;;11.80;71.90;;;;;;5112307;28;20401;-68
2022/09/26 07:57:34;;;;;;;5.15;2.67;;;11.80;71.90;;;;;;5113013;28;20040;-68
2022/09/26 08:00:04;;;;;;;5.18;2.30;;;11.80;71.70;;;;;;5113015;28;20050;-67
2022/09/26 08:02:34;;;;;;;7.75;3.30;;;11.90;71.80;;;;;;5112724;28;20043;-67
2022/09/26 08:05:04;;;;;;;5.47;2.58;;;11.90;71.70;;;;;;5110033;28;20036;-67
2022/09/26 08:07:31;;;;;;;6.82;3.03;;;11.90;71.60;;;;;;5113085;28;20043;-67
2022/09/26 08:09:57;;;;;;;7.13;2.53;;;11.90;71.60;;;;;;5113289;28;20078;-68
2022/09/26 08:12:24;;;;;;;4.68;2.58;;;12.00;71.60;;;;;;5096327;28;20032;-67
2022/09/26 08:14:51;;;;;;;9.95;2.53;;;12.00;71.50;;;;;;5113156;28;20440;-67
2022/09/26 08:17:18;;;;;;;7.43;3.05;;;12.00;71.30;;;;;;5112184;28;20368;-67
2022/09/26 08:19:43;;;;;;;6.43;2.65;;;12.00;71.30;;;;;;5095017;28;20132;-67
2022/09/26 08:22:10;;;;;;;4.95;2.60;;;12.10;71.30;;;;;;5095188;28;20501;-68
2022/09/26 08:24:37;;;;;;;4.18;2.88;;;12.10;71.40;;;;;;5112074;28;20058;-68
2022/09/26 08:27:04;;;;;;;6.20;2.65;;;12.10;71.30;;;;;;5111481;28;20052;-68
2022/09/26 08:29:33;;;;;;;10.43;2.75;;;12.20;71.30;;;;;;5112329;28;20140;-68
2022/09/26 08:32:01;;;;;;;5.40;2.28;;;12.20;71.20;;;;;;5111984;28;20122;-68
2022/09/26 08:34:26;;;;;;;7.03;2.40;;;12.20;71.00;;;;;;5112021;28;20492;-68
2022/09/26 08:36:53;;;;;;;4.80;2.50;;;12.20;71.00;;;;;;5111584;28;20075;-68
2022/09/26 08:39:22;;;;;;;6.88;2.13;;;12.20;71.00;;;;;;5112003;28;20043;-68
2022/09/26 08:42:27;;;;;;;7.85;2.95;;;12.20;71.00;;;;;;5111907;28;20039;-69
2022/09/26 08:48:23;;;;;;;5.72;2.88;;;12.30;70.80;;;;;;5111343;28;20126;-68
2022/09/26 08:50:52;;;;;;;7.32;2.80;;;12.30;70.90;;;;;;5114295;27;20035;-68
2022/09/26 08:53:36;;;;;;;5.15;2.42;;;12.30;70.90;;;;;;5116361;27;20483;-68
2022/09/26 08:56:10;;;;;;;4.45;2.50;;;12.40;71.00;;;;;;5112064;28;20042;-68
2022/09/26 08:58:47;;;;;;;7.82;2.35;;;12.50;71.00;;;;;;5111425;28;20082;-68
2022/09/26 09:01:22;;;;;;;7.03;2.35;;;12.50;71.00;;;;;;5111366;28;20044;-68
2022/09/26 09:03:54;;;;;;;4.40;2.20;;;12.60;71.00;;;;;;5111515;28;20051;-67
2022/09/26 09:06:20;;;;;;;7.75;3.00;;;12.60;71.00;;;;;;5109748;28;20035;-68
2022/09/26 09:08:51;;;;;;;7.55;2.75;;;12.70;71.00;;;;;;5111016;28;20151;-68
2022/09/26 09:11:38;;;;;;;4.22;2.60;;;12.70;70.70;;;;;;5111053;28;20032;-68
2022/09/26 09:14:21;;;;;;;6.18;2.50;;;12.80;70.70;;;;;;5111667;28;20043;-69
2022/09/26 09:17:15;;;;;;;5.00;2.28;;;12.80;70.50;;;;;;5113956;27;20038;-68
2022/09/26 09:20:07;;;;;;;7.93;2.80;;;12.90;70.30;;;;;;5124661;27;20043;-68
2022/09/26 09:22:51;;;;;;;6.80;3.00;;;12.90;69.90;;;;;;5111316;28;20112;-65
2022/09/26 09:25:20;;;;;;;7.63;3.17;;;12.90;69.90;;;;;;5126282;27;20048;-66
2022/09/26 09:27:51;;;;;;;5.30;2.28;;;12.90;70.00;;;;;;5110770;28;20043;-66
2022/09/26 09:30:50;;;;;;;7.43;2.95;;;12.90;69.90;;;;;;5110964;28;20487;-66
2022/09/26 09:33:31;;;;;;;6.30;2.78;;;13.00;69.90;;;;;;5102695;28;20051;-66
2022/09/26 09:36:12;;;;;;;6.72;3.03;;;12.90;70.10;;;;;;5111266;28;20114;-67
2022/09/26 09:38:42;;;;;;;6.65;3.42;;;13.00;70.10;;;;;;5115001;28;20036;-66
2022/09/26 09:41:12;;;;;;;5.05;2.85;;;13.00;70.10;;;;;;5120854;28;20356;-66
2022/09/26 09:43:44;;;;;;;5.85;2.65;;;13.00;70.00;;;;;;5126267;28;20035;-66
2022/09/26 09:46:22;;;;;;;5.60;2.72;;;13.00;70.10;;;;;;5093199;28;20043;-65
2022/09/26 09:48:50;;;;;;;8.65;3.13;;;13.10;70.00;;;;;;5110107;28;20040;-65
2022/09/26 09:51:28;;;;;;;6.25;3.50;;;13.10;69.90;;;;;;5092943;28;20050;-65
2022/09/26 09:54:25;;;;;;;6.75;2.78;;;13.10;70.00;;;;;;5110098;28;20096;-66
2022/09/26 09:57:06;;;;;;;7.68;2.97;;;13.10;70.30;;;;;;5109307;28;20063;-65
2022/09/26 09:59:35;;;;;;;7.05;3.10;;;13.10;70.60;;;;;;5109385;28;20651;-65
2022/09/26 10:02:35;;;;;;;7.85;3.00;;;13.10;70.70;;;;;;5110364;28;20142;-65
2022/09/26 10:05:21;;;;;;;5.32;3.40;;;13.10;70.90;;;;;;5109332;28;20050;-68
2022/09/26 10:07:47;;;;;;;9.07;3.08;;;13.10;71.30;;;;;;5092944;28;20079;-70
2022/09/26 10:10:19;;;;;;;5.82;3.03;;;13.00;71.20;;;;;;5111028;28;20073;-70
2022/09/26 10:12:49;;;;;;;7.97;3.30;;;13.00;71.30;;;;;;5110693;28;20115;-70
2022/09/26 10:15:19;;;;;;;5.60;2.83;;;13.00;71.40;;;;;;5110556;28;20078;-70
2022/09/26 10:18:17;;;;;;;5.13;2.97;;;13.00;71.50;;;;;;5111069;28;20123;-68
2022/09/26 10:20:53;;;;;;;6.80;3.15;;;13.00;71.50;;;;;;5091229;28;20566;-65
2022/09/26 10:23:32;;;;;;;7.65;2.92;;;13.00;71.60;;;;;;5103312;28;20043;-65
2022/09/26 10:26:04;;;;;;;7.72;3.33;;;12.90;71.60;;;;;;5111550;28;20082;-66
2022/09/26 10:28:43;;;;;;;8.63;3.25;;;12.90;71.80;;;;;;5110299;28;20040;-65
2022/09/26 10:31:10;;;;;;;6.28;2.58;;;12.90;72.00;;;;;;5126727;28;20390;-69
2022/09/26 10:33:42;;;;;;;5.00;2.88;;;12.90;72.10;;;;;;5110454;28;20060;-70
2022/09/26 10:36:16;;;;;;;6.03;2.53;;;12.90;72.10;;;;;;5107648;28;20036;-69
2022/09/26 10:41:58;;;;;;;6.18;2.45;;;12.90;72.30;;;;;;5071651;28;20043;-70
2022/09/26 10:44:29;;;;;;;6.72;2.95;;;12.90;72.50;;;;;;5110557;28;20044;-70
2022/09/26 10:47:07;;;;;;;5.93;2.75;;;12.90;72.70;;;;;;5110381;28;20035;-70
2022/09/26 10:49:54;;;;;;;3.55;2.50;;;12.90;72.80;;;;;;5110024;28;20051;-70
2022/09/26 10:52:22;;;;;;;7.15;2.80;;;12.90;73.00;;;;;;5093273;28;20036;-70
2022/09/26 10:55:08;;;;;;;5.57;2.85;;;12.90;73.00;;;;;;5096202;28;20386;-70
2022/09/26 10:57:44;;;;;;;6.65;3.15;;;12.90;73.40;;;;;;5114620;28;20371;-71
2022/09/26 11:00:16;;;;;;;8.15;2.92;;;12.90;73.50;;;;;;5115635;27;20039;-71
2022/09/26 11:02:45;;;;;;;4.93;2.78;;;12.90;73.70;;;;;;5114700;28;20459;-71
2022/09/26 11:08:05;;;;;;;5.68;3.25;;;12.90;73.90;;;;;;5114164;28;20131;-71
2022/09/26 11:10:32;;;;;;;6.72;2.72;;;12.90;74.10;;;;;;5114538;28;20039;-69
2022/09/26 11:13:03;;;;;;;5.22;3.28;;;12.90;74.30;;;;;;5097376;28;20460;-68
2022/09/26 11:15:29;;;;;;;4.65;3.42;;;12.90;74.40;;;;;;5131526;27;20479;-68
2022/09/26 11:17:55;;;;;;;5.68;3.05;;;12.90;74.60;;;;;;5113886;28;20043;-68
2022/09/26 11:20:50;;;;;;;3.95;2.85;;;12.90;74.60;;;;;;5114487;28;20043;-68
2022/09/26 11:23:26;;;;;;;6.22;2.75;;;12.90;74.80;;;;;;5114191;28;20036;-69
2022/09/26 11:26:05;;;;;;;4.13;2.92;;;12.90;74.80;;;;;;5114097;28;20528;-68
2022/09/26 11:28:43;;;;;;;6.47;2.60;;;12.90;74.90;;;;;;5114241;28;20036;-68
2022/09/26 11:31:23;;;;;;;5.88;3.10;;;12.90;75.00;;;;;;5114581;28;20039;-68
2022/09/26 11:33:49;;;;;;;6.00;2.85;;;12.90;75.10;;;;;;5113768;28;20404;-68
2022/09/26 11:37:01;;;;;;;3.92;2.92;;;12.90;75.10;;;;;;5114355;28;20039;-68
2022/09/26 11:39:52;;;;;;;4.43;2.72;;;12.90;75.20;;;;;;5114094;28;20040;-68
2022/09/26 11:42:33;;;;;;;4.65;3.15;;;12.90;75.30;;;;;;5096391;28;20035;-68
2022/09/26 11:45:12;;;;;;;5.13;3.17;;;12.90;75.30;;;;;;5113680;28;20118;-68
2022/09/26 11:48:07;;;;;;;4.90;2.88;;;12.90;75.40;;;;;;5114186;28;20394;-69
2022/09/26 11:51:04;;;;;;;6.40;3.13;;;12.90;75.50;;;;;;5113590;28;20053;-68
2022/09/26 11:53:59;;;;;;;4.97;3.30;;;12.90;75.60;;;;;;5123389;27;20038;-68
2022/09/26 11:56:49;;;;;;;7.28;3.03;;;12.90;75.60;;;;;;5109667;27;20048;-68
2022/09/26 11:59:36;;;;;;;3.78;3.00;;;12.90;75.50;;;;;;5113727;28;20039;-68
2022/09/26 12:02:14;;;;;;;4.95;2.95;;;12.90;75.70;;;;;;5112383;28;20122;-68
2022/09/26 12:05:02;;;;;;;6.70;3.13;;;13.00;75.80;;;;;;5129707;27;20485;-68
2022/09/26 12:07:42;;;;;;;4.93;3.20;;;13.00;75.80;;;;;;5113535;28;20044;-68
2022/09/26 12:10:23;;;;;;;4.18;2.85;;;13.00;75.90;;;;;;5128107;27;20050;-68
2022/09/26 12:13:12;;;;;;;5.15;3.05;;;13.00;75.90;;;;;;5113557;28;20132;-68
2022/09/26 12:15:43;;;;;;;6.90;3.78;;;13.00;75.90;;;;;;5113685;28;20391;-68
2022/09/26 12:18:33;;;;;;;4.43;3.00;;;13.00;75.80;;;;;;5093056;28;20036;-68
2022/09/26 12:21:17;;;;;;;4.93;3.00;;;13.00;75.90;;;;;;5092909;28;20123;-68
2022/09/26 12:23:51;;;;;;;7.18;3.70;;;13.00;75.90;;;;;;5110005;28;20040;-68
2022/09/26 12:26:38;;;;;;;4.82;3.35;;;13.00;76.00;;;;;;5114780;27;20040;-68
2022/09/26 12:29:10;;;;;;;4.28;3.08;;;13.10;76.10;;;;;;5113120;28;20052;-68
2022/09/26 12:31:51;;;;;;;5.13;3.03;;;13.10;76.20;;;;;;5113243;28;20044;-68
2022/09/26 12:34:58;;;;;;;6.93;3.30;;;13.10;76.30;;;;;;5112936;28;20069;-68
2022/09/26 12:37:39;;;;;;;4.05;2.80;;;13.10;76.30;;;;;;5097499;28;20514;-68
2022/09/26 12:40:25;;;;;;;4.13;3.08;;;13.10;76.30;;;;;;5112819;28;20043;-66
2022/09/26 12:43:30;;;;;;;4.38;2.65;;;13.10;76.30;;;;;;5112265;28;20044;-67
2022/09/26 12:46:02;;;;;;;5.00;2.50;;;13.10;76.20;;;;;;5118992;27;20146;-67
2022/09/26 12:48:45;;;;;;;4.15;2.38;;;13.10;76.20;;;;;;5128206;27;20051;-67
2022/09/26 12:51:31;;;;;;;4.07;2.57;;;13.10;76.30;;;;;;5128444;27;20039;-67
2022/09/26 12:54:07;;;;;;;4.20;2.25;;;13.10;76.30;;;;;;5112329;27;20070;-67
2022/09/26 12:56:54;;;;;;;4.07;2.30;;;13.20;76.40;;;;;;5111329;27;20047;-67
2022/09/26 12:59:32;;;;;;;6.35;2.65;;;13.20;76.50;;;;;;5126617;27;20111;-67
2022/09/26 13:02:07;;;;;;;3.15;2.13;;;13.20;76.70;;;;;;5128445;27;20042;-66
2022/09/26 13:04:57;;;;;;;3.70;2.20;;;13.20;76.70;;;;;;5128576;27;20126;-66
2022/09/26 13:07:45;;;;;;;2.67;2.08;;;13.20;76.60;;;;;;5129118;27;20121;-67
2022/09/26 13:10:19;;;;;;;3.20;2.03;;;13.20;76.80;;;;;;5128235;27;20140;-66
2022/09/26 13:13:07;;;;;;;3.38;2.10;;;13.30;77.00;;;;;;5127963;27;20047;-66
2022/09/26 13:16:12;;;;;;;2.15;1.95;;;13.30;77.20;;;;;;5128587;27;20055;-66
2022/09/26 13:18:43;;;;;;;3.80;2.50;;;13.40;77.30;;;;;;5025771;27;20059;-67
2022/09/26 13:21:14;;;;;;;2.85;1.85;;;13.40;77.40;;;;;;5128137;27;20049;-66
2022/09/26 13:24:06;;;;;;;3.97;2.45;;;13.50;77.50;;;;;;5128075;27;20039;-66
2022/09/26 13:26:41;;;;;;;3.33;2.10;;;13.50;77.40;;;;;;5127271;27;20086;-67
2022/09/26 13:29:12;;;;;;;2.75;2.13;;;13.60;77.50;;;;;;5125107;27;20054;-66
2022/09/26 13:31:54;;;;;;;3.47;2.15;;;13.60;77.40;;;;;;5110994;27;20114;-67
2022/09/26 13:34:26;;;;;;;4.30;2.30;;;13.70;77.30;;;;;;5124477;27;20042;-66
2022/09/26 13:36:54;;;;;;;2.13;1.70;;;13.70;77.10;;;;;;5123178;27;20408;-67